createdAt,value
2019-02-27T17:13:02.792Z,36.64
2019-02-27T17:15:35.992Z,36.76
2019-02-27T17:18:03.485Z,36.89
2019-02-27T17:20:32.880Z,37.42
2019-02-27T17:23:07.587Z,37.53
2019-02-27T17:25:33.506Z,38.52
2019-02-27T17:28:02.943Z,38.36
2019-02-27T17:30:36.379Z,38.22
2019-02-27T17:33:05.322Z,38.36
2019-02-27T17:35:34.804Z,38.10
2019-02-27T17:38:04.321Z,38.63
2019-02-27T17:40:36.900Z,38.86
2019-02-27T17:43:06.801Z,39.04
2019-02-27T17:45:36.343Z,39.15
2019-02-27T17:48:05.791Z,39.60
2019-02-27T17:50:35.196Z,40.22
2019-02-27T17:53:04.611Z,40.13
2019-02-27T17:55:34.131Z,40.68
2019-02-27T17:58:03.638Z,41.45
2019-02-27T18:00:36.561Z,41.57
2019-02-27T18:03:06.028Z,41.81
2019-02-27T18:05:35.565Z,42.67
2019-02-27T18:08:05.232Z,41.51
2019-02-27T18:10:37.646Z,41.75
2019-02-27T18:13:06.070Z,42.90
2019-02-27T18:15:35.529Z,42.79
2019-02-27T18:18:07.492Z,42.10
2019-02-27T18:20:36.434Z,43.30
2019-02-27T18:23:05.849Z,44.05
2019-02-27T18:25:35.457Z,43.48
2019-02-27T18:28:04.871Z,43.29
2019-02-27T18:30:34.297Z,43.21
2019-02-27T18:33:03.975Z,44.65
2019-02-27T18:35:33.338Z,45.31
2019-02-27T18:38:02.766Z,44.30
2019-02-27T18:40:32.184Z,45.00
2019-02-27T18:43:01.663Z,45.19
2019-02-27T18:45:31.324Z,45.78
2019-02-27T18:48:00.789Z,45.86
2019-02-27T18:50:30.254Z,46.95
2019-02-27T18:52:59.655Z,47.38
2019-02-27T18:55:30.712Z,47.29
2019-02-27T18:58:00.390Z,46.88
2019-02-27T19:00:29.888Z,47.99
2019-02-27T19:02:59.571Z,47.29
2019-02-27T19:05:29.079Z,47.15
2019-02-27T19:07:58.564Z,47.39
2019-02-27T19:10:28.094Z,47.33
2019-02-27T19:12:59.983Z,47.39
2019-02-27T19:15:28.978Z,48.07
2019-02-27T19:17:58.684Z,48.21
2019-02-27T19:20:29.268Z,48.07
2019-02-27T19:23:00.355Z,47.92
2019-02-27T19:25:34.137Z,47.97
2019-02-27T19:28:01.408Z,48.31
2019-02-27T19:30:30.791Z,48.52
2019-02-27T19:33:01.986Z,48.58
2019-02-27T19:35:31.598Z,48.61
2019-02-27T19:38:01.066Z,48.66
2019-02-27T19:40:31.325Z,49.00
2019-02-27T19:43:02.717Z,49.21
2019-02-27T19:45:32.347Z,49.41
2019-02-27T19:48:01.765Z,49.66
2019-02-27T19:50:31.271Z,49.99
2019-02-27T19:53:05.224Z,50.38
2019-02-27T19:55:31.848Z,50.08
2019-02-27T19:58:01.274Z,50.66
2019-02-27T20:00:35.023Z,51.31
2019-02-27T20:03:02.280Z,51.50
2019-02-27T20:05:31.886Z,52.13
2019-02-27T20:08:02.482Z,52.46
2019-02-27T20:10:33.287Z,52.68
2019-02-27T20:13:03.112Z,52.97
2019-02-27T20:15:32.818Z,53.13
2019-02-27T20:18:07.798Z,53.99
2019-02-27T20:20:33.423Z,53.99
2019-02-27T20:23:02.836Z,54.86
2019-02-27T20:25:32.956Z,54.86
2019-02-27T20:28:02.493Z,54.51
2019-02-27T20:30:32.259Z,54.16
2019-02-27T20:33:02.531Z,53.85
2019-02-27T20:35:32.612Z,54.45
2019-02-27T20:38:02.021Z,55.21
2019-02-27T20:40:34.224Z,55.95
2019-02-27T20:43:03.167Z,55.95
2019-02-27T20:45:32.676Z,55.86
2019-02-27T20:48:02.182Z,57.16
2019-02-27T20:50:35.681Z,57.65
2019-02-27T20:53:05.714Z,57.65
2019-02-27T20:55:35.151Z,57.67
2019-02-27T20:58:04.654Z,57.27
2019-02-27T21:00:36.510Z,57.25
2019-02-27T21:03:05.298Z,58.33
2019-02-27T21:05:34.791Z,58.33
2019-02-27T21:08:04.242Z,59.44
2019-02-27T21:10:33.644Z,59.44
2019-02-27T21:13:03.086Z,59.04
2019-02-27T21:15:33.468Z,59.04
2019-02-27T21:18:03.013Z,58.57
2019-02-27T21:20:33.293Z,58.92
2019-02-27T21:23:02.900Z,58.62
2019-02-27T21:25:32.419Z,58.99
2019-02-27T21:28:06.585Z,58.99
2019-02-27T21:30:33.373Z,58.29
2019-02-27T21:33:02.792Z,58.31
2019-02-27T21:35:32.390Z,58.50
2019-02-27T21:38:02.004Z,58.85
2019-02-27T21:40:33.454Z,59.37
2019-02-27T21:43:02.542Z,59.37
2019-02-27T21:45:32.050Z,59.95
2019-02-27T21:48:01.443Z,59.85
2019-02-27T21:50:30.870Z,59.50
2019-02-27T21:53:00.267Z,59.80
2019-02-27T21:55:29.911Z,60.13
2019-02-27T21:57:59.286Z,60.22
2019-02-27T22:00:29.610Z,60.40
2019-02-27T22:03:04.066Z,60.48
2019-02-27T22:05:30.475Z,60.42
2019-02-27T22:07:59.850Z,60.61
2019-02-27T22:10:29.287Z,60.32
2019-02-27T22:12:58.770Z,60.11
2019-02-27T22:15:28.991Z,59.94
2019-02-27T22:17:58.405Z,60.54
2019-02-27T22:20:27.781Z,60.49
2019-02-27T22:22:57.195Z,60.72
2019-02-27T22:25:30.218Z,61.09
2019-02-27T22:27:58.454Z,61.24
2019-02-27T22:30:27.981Z,61.55
2019-02-27T22:32:57.489Z,61.60
2019-02-27T22:35:26.865Z,61.83
2019-02-27T22:37:56.250Z,61.57
2019-02-27T22:40:25.696Z,62.25
2019-02-27T22:42:55.083Z,61.99
2019-02-27T22:45:24.499Z,62.50
2019-02-27T22:47:54.723Z,62.36
2019-02-27T22:50:24.288Z,62.32
2019-02-27T22:52:54.639Z,62.48
2019-02-27T22:55:24.861Z,62.73
2019-02-27T22:57:55.055Z,63.03
2019-02-27T23:00:56.733Z,62.72
2019-02-27T23:03:27.354Z,62.93
2019-02-27T23:05:56.824Z,62.80
2019-02-27T23:08:26.230Z,62.61
2019-02-27T23:10:55.685Z,62.20
2019-02-27T23:13:25.118Z,62.35
2019-02-27T23:15:58.188Z,62.70
2019-02-27T23:18:25.787Z,62.95
2019-02-27T23:20:56.077Z,63.18
2019-02-27T23:23:25.560Z,63.15
2019-02-27T23:25:54.961Z,63.02
2019-02-27T23:28:24.354Z,63.08
2019-02-27T23:30:53.774Z,63.10
2019-02-27T23:33:24.640Z,63.43
2019-02-27T23:35:54.252Z,63.17
2019-02-27T23:38:23.627Z,63.54
2019-02-27T23:40:53.027Z,63.94
2019-02-27T23:43:22.440Z,63.96
2019-02-27T23:45:51.873Z,63.97
2019-02-27T23:48:21.493Z,63.55
2019-02-27T23:50:50.987Z,63.44
2019-02-27T23:53:20.515Z,63.47
2019-02-27T23:55:49.959Z,63.33
2019-02-27T23:58:19.570Z,63.75
